Reedurban, Ohio
Current Conditions -  °F | °C
As of 4:51 PM on Thursday 18 Dec 2014 (Local Time) from KCAK Reporting Station
Overcast Overcast  
Wind Chill: 21°   Ceiling: 1400
Heat Index: 29°   Visibility: 9mi
Dew Point: 21°   Wind: 8mph
Humidity: 72%   Direction: 260°W
Pressure: 30.16"   Gusts: NA
Location:  40.7898°N, 81.4236°W
Report Text: KCAK 182151Z 26007KT 9SM OVC014 M02/M06 A3016 RMK AO2 SLP226 T10171061
Loading
Personal Weather Stations






























Interactive Weather Map New forecast layout! Learn more

10-Day Weather Forecast

Advertisements
Track Severe Weather on mobile